首页
METAR-TAF:

METAR-TAF

机场 :

Wattisham, 英格兰

纬度: 52-07N, 经度: 000-58E, 海拔: 87米

当前天气观测

该预报发布于38分钟前的22:23 UTC
风速12节,风向
温度 12°C
湿度 88%
气压 1006 hPa
能见度10公里或以上
少量云层高于1000英尺
多云层高于2500英尺
多云层高于8000英尺

METAR: EGUW 032223Z 36012KT 9999 FEW010 BKN025 BKN080 12/10 Q1006 BECMG BKN010 RMK BLU BECMG GRN

时间: 00:01 (23:01 UTC)

预报

该预报发布于3小时和20分钟前的19:41 UTC
预报有效从03日的 21点(UTC)到 04日的 02点(UTC)
风速12节,风向
能见度10公里或以上
散云层高于3000英尺
短暂存在
从 03日的 21点(UTC)到 04日的 02点(UTC)
能見度: 6000
多云层高于800英尺
小雨, 毛毛雨
几率 30% :
短暂存在
从 04日的 00点(UTC)到 04日的 02点(UTC)
多云层高于600英尺

TAF: EGUW 031941Z 0321/0402 36012KT 9999 SCT030 TEMPO 0321/0402 6000 -RADZ BKN008 PROB30 TEMPO 0400/0402 BKN006

超过4000个机场的气象观测和天气预报(METAR&TAF报告)。

可查询的气象台以黄色和红色小点在地图上表示。

将鼠标移到小点上方,可查看气象台名称。

然后点击查看天气观测和预报。

如需切换地图:点击带黑十字的绿色按钮放大地图;点击带横线的绿色按钮缩小地图;或者点击绿色箭头查看邻近地区的地图。


METAR-TAF: